sensor_id;sensor_type;location;lat;lon;timestamp;temperature;humidity
15625;DHT22;7912;51.376;6.126;2023-12-07T00:02:04;4.10;99.90
15625;DHT22;7912;51.376;6.126;2023-12-07T00:04:32;4.10;99.90
15625;DHT22;7912;51.376;6.126;2023-12-07T00:06:59;4.10;99.90
15625;DHT22;7912;51.376;6.126;2023-12-07T00:09:26;4.00;99.90
15625;DHT22;7912;51.376;6.126;2023-12-07T00:11:54;4.00;99.90
15625;DHT22;7912;51.376;6.126;2023-12-07T00:14:24;4.00;99.90
15625;DHT22;7912;51.376;6.126;2023-12-07T00:16:51;4.00;99.90
15625;DHT22;7912;51.376;6.126;2023-12-07T00:19:19;3.90;99.90
15625;DHT22;7912;51.376;6.126;2023-12-07T00:21:47;3.90;99.90
15625;DHT22;7912;51.376;6.126;2023-12-07T00:24:15;3.90;99.90
15625;DHT22;7912;51.376;6.126;2023-12-07T00:26:42;3.80;99.90
15625;DHT22;7912;51.376;6.126;2023-12-07T00:29:09;3.80;99.90
15625;DHT22;7912;51.376;6.126;2023-12-07T00:31:36;3.70;99.90
15625;DHT22;7912;51.376;6.126;2023-12-07T00:34:04;3.70;99.90
15625;DHT22;7912;51.376;6.126;2023-12-07T00:36:32;3.60;99.90
15625;DHT22;7912;51.376;6.126;2023-12-07T00:39:20;3.60;99.90
15625;DHT22;7912;51.376;6.126;2023-12-07T00:49:23;3.40;99.90
15625;DHT22;7912;51.376;6.126;2023-12-07T00:51:50;3.30;99.90
15625;DHT22;7912;51.376;6.126;2023-12-07T00:54:18;3.20;99.90
15625;DHT22;7912;51.376;6.126;2023-12-07T00:56:45;3.20;99.90
15625;DHT22;7912;51.376;6.126;2023-12-07T00:59:12;3.20;99.90
15625;DHT22;7912;51.376;6.126;2023-12-07T01:01:39;3.10;99.90
15625;DHT22;7912;51.376;6.126;2023-12-07T01:04:07;3.10;99.90
15625;DHT22;7912;51.376;6.126;2023-12-07T01:06:38;3.10;99.90
15625;DHT22;7912;51.376;6.126;2023-12-07T01:09:08;3.00;99.90
15625;DHT22;7912;51.376;6.126;2023-12-07T01:11:40;3.00;99.90
15625;DHT22;7912;51.376;6.126;2023-12-07T01:14:07;3.00;99.90
15625;DHT22;7912;51.376;6.126;2023-12-07T01:16:34;3.00;99.90
15625;DHT22;7912;51.376;6.126;2023-12-07T01:19:02;2.90;99.90
15625;DHT22;7912;51.376;6.126;2023-12-07T01:21:29;2.90;99.90
15625;DHT22;7912;51.376;6.126;2023-12-07T01:23:57;2.90;99.90
15625;DHT22;7912;51.376;6.126;2023-12-07T01:26:41;2.90;99.90
15625;DHT22;7912;51.376;6.126;2023-12-07T01:29:09;2.80;99.90
15625;DHT22;7912;51.376;6.126;2023-12-07T01:31:36;2.80;99.90
15625;DHT22;7912;51.376;6.126;2023-12-07T01:34:03;2.80;99.90
15625;DHT22;7912;51.376;6.126;2023-12-07T01:36:31;2.70;99.90
15625;DHT22;7912;51.376;6.126;2023-12-07T01:39:01;2.70;99.90
15625;DHT22;7912;51.376;6.126;2023-12-07T01:41:34;2.70;99.90
15625;DHT22;7912;51.376;6.126;2023-12-07T01:44:04;2.60;99.90
15625;DHT22;7912;51.376;6.126;2023-12-07T01:46:32;2.60;99.90
15625;DHT22;7912;51.376;6.126;2023-12-07T01:49:01;2.60;99.90
15625;DHT22;7912;51.376;6.126;2023-12-07T01:51:29;2.60;99.90
15625;DHT22;7912;51.376;6.126;2023-12-07T01:53:58;2.60;99.90
15625;DHT22;7912;51.376;6.126;2023-12-07T01:56:26;2.60;99.90
15625;DHT22;7912;51.376;6.126;2023-12-07T01:58:53;2.60;99.90
15625;DHT22;7912;51.376;6.126;2023-12-07T02:01:23;2.60;99.90
15625;DHT22;7912;51.376;6.126;2023-12-07T02:03:51;2.60;99.90
15625;DHT22;7912;51.376;6.126;2023-12-07T02:06:21;2.70;99.90
15625;DHT22;7912;51.376;6.126;2023-12-07T02:08:49;2.70;99.90
15625;DHT22;7912;51.376;6.126;2023-12-07T02:11:16;2.70;99.90
15625;DHT22;7912;51.376;6.126;2023-12-07T02:13:43;2.80;99.90
15625;DHT22;7912;51.376;6.126;2023-12-07T02:16:19;2.80;99.90
15625;DHT22;7912;51.376;6.126;2023-12-07T02:19:03;2.80;99.90
15625;DHT22;7912;51.376;6.126;2023-12-07T02:21:48;2.90;99.90
15625;DHT22;7912;51.376;6.126;2023-12-07T02:24:33;2.90;99.90
15625;DHT22;7912;51.376;6.126;2023-12-07T02:27:04;2.90;99.90
15625;DHT22;7912;51.376;6.126;2023-12-07T02:29:31;3.00;99.90
15625;DHT22;7912;51.376;6.126;2023-12-07T02:31:59;3.00;99.90
15625;DHT22;7912;51.376;6.126;2023-12-07T02:34:26;3.10;99.90
15625;DHT22;7912;51.376;6.126;2023-12-07T02:36:53;3.10;99.90
15625;DHT22;7912;51.376;6.126;2023-12-07T02:39:25;3.20;99.90
15625;DHT22;7912;51.376;6.126;2023-12-07T02:41:53;3.20;99.90
15625;DHT22;7912;51.376;6.126;2023-12-07T02:44:22;3.20;99.90
15625;DHT22;7912;51.376;6.126;2023-12-07T02:46:49;3.20;99.90
15625;DHT22;7912;51.376;6.126;2023-12-07T02:49:17;3.30;99.90
15625;DHT22;7912;51.376;6.126;2023-12-07T02:51:44;3.40;99.90
15625;DHT22;7912;51.376;6.126;2023-12-07T02:54:15;3.40;99.90
15625;DHT22;7912;51.376;6.126;2023-12-07T02:56:45;3.40;99.90
15625;DHT22;7912;51.376;6.126;2023-12-07T02:59:12;3.50;99.90
15625;DHT22;7912;51.376;6.126;2023-12-07T03:01:39;3.50;99.90
15625;DHT22;7912;51.376;6.126;2023-12-07T03:04:06;3.60;99.90
15625;DHT22;7912;51.376;6.126;2023-12-07T03:06:34;3.60;99.90
15625;DHT22;7912;51.376;6.126;2023-12-07T03:09:04;3.70;99.90
15625;DHT22;7912;51.376;6.126;2023-12-07T03:11:34;3.70;99.90
15625;DHT22;7912;51.376;6.126;2023-12-07T03:14:04;3.80;99.90
15625;DHT22;7912;51.376;6.126;2023-12-07T03:16:31;3.80;99.90
15625;DHT22;7912;51.376;6.126;2023-12-07T03:19:01;3.80;99.90
15625;DHT22;7912;51.376;6.126;2023-12-07T03:21:28;3.90;99.90
15625;DHT22;7912;51.376;6.126;2023-12-07T03:23:56;3.90;99.90
15625;DHT22;7912;51.376;6.126;2023-12-07T03:29:50;4.00;99.90
15625;DHT22;7912;51.376;6.126;2023-12-07T03:36:00;4.00;99.90
15625;DHT22;7912;51.376;6.126;2023-12-07T03:38:30;4.10;99.90
15625;DHT22;7912;51.376;6.126;2023-12-07T03:40:57;4.10;99.90
15625;DHT22;7912;51.376;6.126;2023-12-07T03:43:24;4.10;99.90
15625;DHT22;7912;51.376;6.126;2023-12-07T03:45:55;4.10;99.90
15625;DHT22;7912;51.376;6.126;2023-12-07T03:48:25;4.10;99.90
15625;DHT22;7912;51.376;6.126;2023-12-07T03:50:52;4.20;99.90
15625;DHT22;7912;51.376;6.126;2023-12-07T03:53:20;4.10;99.90
15625;DHT22;7912;51.376;6.126;2023-12-07T03:55:48;4.20;99.90
15625;DHT22;7912;51.376;6.126;2023-12-07T03:58:15;4.20;99.90
15625;DHT22;7912;51.376;6.126;2023-12-07T04:00:42;4.30;99.90
15625;DHT22;7912;51.376;6.126;2023-12-07T04:03:11;4.30;99.90
15625;DHT22;7912;51.376;6.126;2023-12-07T04:05:39;4.30;99.90
15625;DHT22;7912;51.376;6.126;2023-12-07T04:08:06;4.30;99.90
15625;DHT22;7912;51.376;6.126;2023-12-07T04:10:34;4.40;99.90
15625;DHT22;7912;51.376;6.126;2023-12-07T04:13:01;4.40;99.90
15625;DHT22;7912;51.376;6.126;2023-12-07T04:15:28;4.40;99.90
15625;DHT22;7912;51.376;6.126;2023-12-07T04:17:55;4.40;99.90
15625;DHT22;7912;51.376;6.126;2023-12-07T04:20:22;4.40;99.90
15625;DHT22;7912;51.376;6.126;2023-12-07T04:22:50;4.50;99.90
15625;DHT22;7912;51.376;6.126;2023-12-07T04:25:18;4.50;99.90
15625;DHT22;7912;51.376;6.126;2023-12-07T04:27:45;4.50;99.90
15625;DHT22;7912;51.376;6.126;2023-12-07T04:30:12;4.50;99.90
15625;DHT22;7912;51.376;6.126;2023-12-07T04:32:39;4.50;99.90
15625;DHT22;7912;51.376;6.126;2023-12-07T04:35:07;4.50;99.90
15625;DHT22;7912;51.376;6.126;2023-12-07T04:37:35;4.50;99.90
15625;DHT22;7912;51.376;6.126;2023-12-07T04:40:03;4.50;99.90
15625;DHT22;7912;51.376;6.126;2023-12-07T04:42:31;4.50;99.90
15625;DHT22;7912;51.376;6.126;2023-12-07T04:44:59;4.50;99.90
15625;DHT22;7912;51.376;6.126;2023-12-07T04:47:27;4.50;99.90
15625;DHT22;7912;51.376;6.126;2023-12-07T04:49:54;4.50;99.90
15625;DHT22;7912;51.376;6.126;2023-12-07T04:52:22;4.50;99.90
15625;DHT22;7912;51.376;6.126;2023-12-07T04:54:52;4.60;99.90
15625;DHT22;7912;51.376;6.126;2023-12-07T04:57:20;4.60;99.90
15625;DHT22;7912;51.376;6.126;2023-12-07T04:59:47;4.60;99.90
15625;DHT22;7912;51.376;6.126;2023-12-07T05:02:15;4.60;99.90
15625;DHT22;7912;51.376;6.126;2023-12-07T05:04:44;4.60;99.90
15625;DHT22;7912;51.376;6.126;2023-12-07T05:07:12;4.50;99.90
15625;DHT22;7912;51.376;6.126;2023-12-07T05:09:40;4.60;99.90
15625;DHT22;7912;51.376;6.126;2023-12-07T05:12:09;4.60;99.90
15625;DHT22;7912;51.376;6.126;2023-12-07T05:14:36;4.60;99.90
15625;DHT22;7912;51.376;6.126;2023-12-07T05:17:04;4.60;99.90
15625;DHT22;7912;51.376;6.126;2023-12-07T05:19:32;4.60;99.90
15625;DHT22;7912;51.376;6.126;2023-12-07T05:21:59;4.60;99.90
15625;DHT22;7912;51.376;6.126;2023-12-07T05:24:27;4.60;99.90
15625;DHT22;7912;51.376;6.126;2023-12-07T05:26:55;4.60;99.90
15625;DHT22;7912;51.376;6.126;2023-12-07T05:29:22;4.60;99.90
15625;DHT22;7912;51.376;6.126;2023-12-07T05:31:50;4.70;99.90
15625;DHT22;7912;51.376;6.126;2023-12-07T05:34:17;4.70;99.90
15625;DHT22;7912;51.376;6.126;2023-12-07T05:36:45;4.70;99.90
15625;DHT22;7912;51.376;6.126;2023-12-07T05:39:13;4.70;99.90
15625;DHT22;7912;51.376;6.126;2023-12-07T05:41:40;4.70;99.90
15625;DHT22;7912;51.376;6.126;2023-12-07T05:44:07;4.80;99.90
15625;DHT22;7912;51.376;6.126;2023-12-07T05:46:37;4.80;99.90
15625;DHT22;7912;51.376;6.126;2023-12-07T05:49:25;4.80;99.90
15625;DHT22;7912;51.376;6.126;2023-12-07T05:51:53;4.80;99.90
15625;DHT22;7912;51.376;6.126;2023-12-07T05:54:20;4.80;99.90
15625;DHT22;7912;51.376;6.126;2023-12-07T05:57:08;4.80;99.90
15625;DHT22;7912;51.376;6.126;2023-12-07T05:59:38;4.80;99.90
15625;DHT22;7912;51.376;6.126;2023-12-07T06:02:06;4.80;99.90
15625;DHT22;7912;51.376;6.126;2023-12-07T06:04:33;4.80;99.90
15625;DHT22;7912;51.376;6.126;2023-12-07T06:07:01;4.80;99.90
15625;DHT22;7912;51.376;6.126;2023-12-07T06:09:29;4.80;99.90
15625;DHT22;7912;51.376;6.126;2023-12-07T06:11:56;4.80;99.90
15625;DHT22;7912;51.376;6.126;2023-12-07T06:14:24;4.80;99.90
15625;DHT22;7912;51.376;6.126;2023-12-07T06:16:51;4.80;99.90
15625;DHT22;7912;51.376;6.126;2023-12-07T06:19:18;4.80;99.90
15625;DHT22;7912;51.376;6.126;2023-12-07T06:21:46;4.90;99.90
15625;DHT22;7912;51.376;6.126;2023-12-07T06:24:13;4.90;99.90
15625;DHT22;7912;51.376;6.126;2023-12-07T06:26:41;4.80;99.90
15625;DHT22;7912;51.376;6.126;2023-12-07T06:29:08;4.80;99.90
15625;DHT22;7912;51.376;6.126;2023-12-07T06:31:36;4.90;99.90
15625;DHT22;7912;51.376;6.126;2023-12-07T06:34:03;4.80;99.90
15625;DHT22;7912;51.376;6.126;2023-12-07T06:36:30;4.80;99.90
15625;DHT22;7912;51.376;6.126;2023-12-07T06:38:57;4.80;99.90
15625;DHT22;7912;51.376;6.126;2023-12-07T06:41:25;4.80;99.90
15625;DHT22;7912;51.376;6.126;2023-12-07T06:43:52;4.80;99.90
15625;DHT22;7912;51.376;6.126;2023-12-07T06:46:22;4.80;99.90
15625;DHT22;7912;51.376;6.126;2023-12-07T06:48:52;4.80;99.90
15625;DHT22;7912;51.376;6.126;2023-12-07T06:51:19;4.80;99.90
15625;DHT22;7912;51.376;6.126;2023-12-07T06:53:46;4.80;99.90
15625;DHT22;7912;51.376;6.126;2023-12-07T06:56:33;4.70;99.90
15625;DHT22;7912;51.376;6.126;2023-12-07T06:59:00;4.80;99.90
15625;DHT22;7912;51.376;6.126;2023-12-07T07:01:52;4.70;99.90
15625;DHT22;7912;51.376;6.126;2023-12-07T07:04:22;4.70;99.90
15625;DHT22;7912;51.376;6.126;2023-12-07T07:06:50;4.70;99.90
15625;DHT22;7912;51.376;6.126;2023-12-07T07:09:18;4.70;99.90
15625;DHT22;7912;51.376;6.126;2023-12-07T07:11:49;4.70;99.90
15625;DHT22;7912;51.376;6.126;2023-12-07T07:14:17;4.70;99.90
15625;DHT22;7912;51.376;6.126;2023-12-07T07:16:44;4.70;99.90
15625;DHT22;7912;51.376;6.126;2023-12-07T07:19:11;4.70;99.90
15625;DHT22;7912;51.376;6.126;2023-12-07T07:21:39;4.70;99.90
15625;DHT22;7912;51.376;6.126;2023-12-07T07:24:06;4.70;99.90
15625;DHT22;7912;51.376;6.126;2023-12-07T07:26:35;4.70;99.90
15625;DHT22;7912;51.376;6.126;2023-12-07T07:33:31;4.60;99.90
15625;DHT22;7912;51.376;6.126;2023-12-07T07:35:58;4.60;99.90
15625;DHT22;7912;51.376;6.126;2023-12-07T07:38:27;4.60;99.90
15625;DHT22;7912;51.376;6.126;2023-12-07T07:40:55;4.60;99.90
15625;DHT22;7912;51.376;6.126;2023-12-07T07:43:22;4.60;99.90
15625;DHT22;7912;51.376;6.126;2023-12-07T07:45:51;4.60;99.90
15625;DHT22;7912;51.376;6.126;2023-12-07T07:48:38;4.60;99.90
15625;DHT22;7912;51.376;6.126;2023-12-07T07:51:06;4.70;99.90
15625;DHT22;7912;51.376;6.126;2023-12-07T07:53:36;4.70;99.90
15625;DHT22;7912;51.376;6.126;2023-12-07T07:56:04;4.70;99.90
15625;DHT22;7912;51.376;6.126;2023-12-07T07:58:31;4.70;99.90
15625;DHT22;7912;51.376;6.126;2023-12-07T08:01:06;4.70;99.90
15625;DHT22;7912;51.376;6.126;2023-12-07T08:03:34;4.70;99.90
15625;DHT22;7912;51.376;6.126;2023-12-07T08:06:01;4.70;99.90
15625;DHT22;7912;51.376;6.126;2023-12-07T08:08:28;4.70;99.90
15625;DHT22;7912;51.376;6.126;2023-12-07T08:10:56;4.70;99.90
15625;DHT22;7912;51.376;6.126;2023-12-07T08:13:23;4.70;99.90
15625;DHT22;7912;51.376;6.126;2023-12-07T08:15:51;4.70;99.90
15625;DHT22;7912;51.376;6.126;2023-12-07T08:18:24;4.80;99.90
15625;DHT22;7912;51.376;6.126;2023-12-07T08:20:56;4.80;99.90
15625;DHT22;7912;51.376;6.126;2023-12-07T08:23:24;4.80;99.90
15625;DHT22;7912;51.376;6.126;2023-12-07T08:25:51;4.80;99.90
15625;DHT22;7912;51.376;6.126;2023-12-07T08:28:19;4.80;99.90
15625;DHT22;7912;51.376;6.126;2023-12-07T08:30:46;4.90;99.90
15625;DHT22;7912;51.376;6.126;2023-12-07T08:33:16;4.90;99.90
15625;DHT22;7912;51.376;6.126;2023-12-07T08:35:44;4.90;99.90
15625;DHT22;7912;51.376;6.126;2023-12-07T08:38:11;4.90;99.90
15625;DHT22;7912;51.376;6.126;2023-12-07T08:40:38;5.00;99.90
15625;DHT22;7912;51.376;6.126;2023-12-07T08:43:06;5.00;99.90
15625;DHT22;7912;51.376;6.126;2023-12-07T08:45:36;5.00;99.90
15625;DHT22;7912;51.376;6.126;2023-12-07T08:48:05;5.10;99.90
15625;DHT22;7912;51.376;6.126;2023-12-07T08:50:33;5.10;99.90
15625;DHT22;7912;51.376;6.126;2023-12-07T08:53:02;5.20;99.90
15625;DHT22;7912;51.376;6.126;2023-12-07T08:55:33;5.20;99.90
15625;DHT22;7912;51.376;6.126;2023-12-07T08:58:00;5.30;99.90
15625;DHT22;7912;51.376;6.126;2023-12-07T09:00:32;5.30;99.90
15625;DHT22;7912;51.376;6.126;2023-12-07T09:02:59;5.30;99.90
15625;DHT22;7912;51.376;6.126;2023-12-07T09:05:27;5.40;99.90
15625;DHT22;7912;51.376;6.126;2023-12-07T09:07:54;5.40;99.90
15625;DHT22;7912;51.376;6.126;2023-12-07T09:10:21;5.40;99.90
15625;DHT22;7912;51.376;6.126;2023-12-07T09:12:50;5.40;99.90
15625;DHT22;7912;51.376;6.126;2023-12-07T09:15:17;5.40;99.90
15625;DHT22;7912;51.376;6.126;2023-12-07T09:17:45;5.40;99.90
15625;DHT22;7912;51.376;6.126;2023-12-07T09:20:12;5.50;99.90
15625;DHT22;7912;51.376;6.126;2023-12-07T09:22:45;5.50;99.90
15625;DHT22;7912;51.376;6.126;2023-12-07T09:25:16;5.50;99.90
15625;DHT22;7912;51.376;6.126;2023-12-07T09:27:44;5.60;99.90
15625;DHT22;7912;51.376;6.126;2023-12-07T09:30:13;5.60;99.90
15625;DHT22;7912;51.376;6.126;2023-12-07T09:32:41;5.60;99.90
15625;DHT22;7912;51.376;6.126;2023-12-07T09:35:12;5.70;99.90
15625;DHT22;7912;51.376;6.126;2023-12-07T09:37:48;5.70;99.90
15625;DHT22;7912;51.376;6.126;2023-12-07T09:40:21;5.70;99.90
15625;DHT22;7912;51.376;6.126;2023-12-07T09:42:54;5.70;99.90
15625;DHT22;7912;51.376;6.126;2023-12-07T09:45:22;5.70;99.90
15625;DHT22;7912;51.376;6.126;2023-12-07T09:47:54;5.70;99.90
15625;DHT22;7912;51.376;6.126;2023-12-07T09:50:24;5.70;99.90
15625;DHT22;7912;51.376;6.126;2023-12-07T09:52:54;5.80;99.90
15625;DHT22;7912;51.376;6.126;2023-12-07T09:55:35;5.80;99.90
15625;DHT22;7912;51.376;6.126;2023-12-07T09:58:05;5.80;99.90
15625;DHT22;7912;51.376;6.126;2023-12-07T10:00:36;5.80;99.90
15625;DHT22;7912;51.376;6.126;2023-12-07T10:03:05;5.80;99.90
15625;DHT22;7912;51.376;6.126;2023-12-07T10:05:59;5.80;99.90
15625;DHT22;7912;51.376;6.126;2023-12-07T10:08:32;5.80;99.90
15625;DHT22;7912;51.376;6.126;2023-12-07T10:11:10;5.90;99.90
15625;DHT22;7912;51.376;6.126;2023-12-07T10:13:45;5.90;99.90
15625;DHT22;7912;51.376;6.126;2023-12-07T10:16:13;5.80;99.90
15625;DHT22;7912;51.376;6.126;2023-12-07T10:18:43;5.80;99.90
15625;DHT22;7912;51.376;6.126;2023-12-07T10:21:12;5.80;99.90
15625;DHT22;7912;51.376;6.126;2023-12-07T10:23:41;5.80;99.90
15625;DHT22;7912;51.376;6.126;2023-12-07T10:26:16;5.80;99.90
15625;DHT22;7912;51.376;6.126;2023-12-07T10:28:51;5.80;99.90
15625;DHT22;7912;51.376;6.126;2023-12-07T10:31:26;5.80;99.90
15625;DHT22;7912;51.376;6.126;2023-12-07T10:33:54;5.80;99.90
15625;DHT22;7912;51.376;6.126;2023-12-07T10:36:21;5.80;99.90
15625;DHT22;7912;51.376;6.126;2023-12-07T10:38:50;5.80;99.90
15625;DHT22;7912;51.376;6.126;2023-12-07T10:41:20;5.80;99.90
15625;DHT22;7912;51.376;6.126;2023-12-07T10:43:57;5.80;99.90
15625;DHT22;7912;51.376;6.126;2023-12-07T10:46:27;5.80;99.90
15625;DHT22;7912;51.376;6.126;2023-12-07T10:49:04;5.70;99.90
15625;DHT22;7912;51.376;6.126;2023-12-07T10:51:56;5.70;99.90
15625;DHT22;7912;51.376;6.126;2023-12-07T10:54:43;5.70;99.90
15625;DHT22;7912;51.376;6.126;2023-12-07T10:57:23;5.70;99.90
15625;DHT22;7912;51.376;6.126;2023-12-07T10:59:53;5.70;99.90
15625;DHT22;7912;51.376;6.126;2023-12-07T11:02:23;5.70;99.90
15625;DHT22;7912;51.376;6.126;2023-12-07T11:04:56;5.70;99.90
15625;DHT22;7912;51.376;6.126;2023-12-07T11:07:27;5.70;99.90
15625;DHT22;7912;51.376;6.126;2023-12-07T11:13:24;5.80;99.90
15625;DHT22;7912;51.376;6.126;2023-12-07T11:16:00;5.80;99.90
15625;DHT22;7912;51.376;6.126;2023-12-07T11:18:28;5.90;99.90
15625;DHT22;7912;51.376;6.126;2023-12-07T11:20:56;6.00;99.90
15625;DHT22;7912;51.376;6.126;2023-12-07T11:23:28;6.00;99.90
15625;DHT22;7912;51.376;6.126;2023-12-07T11:25:58;6.10;99.90
15625;DHT22;7912;51.376;6.126;2023-12-07T11:28:39;6.20;99.90
15625;DHT22;7912;51.376;6.126;2023-12-07T11:31:07;6.30;99.90
15625;DHT22;7912;51.376;6.126;2023-12-07T11:33:38;6.30;99.90
15625;DHT22;7912;51.376;6.126;2023-12-07T11:36:08;6.40;99.90
15625;DHT22;7912;51.376;6.126;2023-12-07T11:38:37;6.50;99.90
15625;DHT22;7912;51.376;6.126;2023-12-07T11:41:05;6.50;99.90
15625;DHT22;7912;51.376;6.126;2023-12-07T12:07:34;6.90;99.90
15625;DHT22;7912;51.376;6.126;2023-12-07T12:10:03;6.90;99.90
15625;DHT22;7912;51.376;6.126;2023-12-07T12:12:33;6.90;99.90
15625;DHT22;7912;51.376;6.126;2023-12-07T12:15:00;6.90;99.90
15625;DHT22;7912;51.376;6.126;2023-12-07T12:17:27;6.90;99.90
15625;DHT22;7912;51.376;6.126;2023-12-07T12:19:55;6.90;99.90
15625;DHT22;7912;51.376;6.126;2023-12-07T12:22:23;6.90;99.90
15625;DHT22;7912;51.376;6.126;2023-12-07T12:24:54;7.00;99.90
15625;DHT22;7912;51.376;6.126;2023-12-07T12:27:21;7.00;99.90
15625;DHT22;7912;51.376;6.126;2023-12-07T12:29:49;7.10;99.90
15625;DHT22;7912;51.376;6.126;2023-12-07T12:32:17;7.10;99.90
15625;DHT22;7912;51.376;6.126;2023-12-07T12:34:44;7.20;99.90
15625;DHT22;7912;51.376;6.126;2023-12-07T12:37:12;7.30;99.90
15625;DHT22;7912;51.376;6.126;2023-12-07T12:39:39;7.40;99.90
15625;DHT22;7912;51.376;6.126;2023-12-07T12:42:07;7.40;99.90
15625;DHT22;7912;51.376;6.126;2023-12-07T12:44:39;7.50;99.90
15625;DHT22;7912;51.376;6.126;2023-12-07T12:47:09;7.60;99.90
15625;DHT22;7912;51.376;6.126;2023-12-07T12:49:39;7.60;99.90
15625;DHT22;7912;51.376;6.126;2023-12-07T12:52:11;7.70;99.90
15625;DHT22;7912;51.376;6.126;2023-12-07T12:54:42;7.70;99.90
15625;DHT22;7912;51.376;6.126;2023-12-07T12:57:10;7.80;99.90
15625;DHT22;7912;51.376;6.126;2023-12-07T12:59:38;7.90;99.90
15625;DHT22;7912;51.376;6.126;2023-12-07T13:02:08;7.90;99.90
15625;DHT22;7912;51.376;6.126;2023-12-07T13:04:37;8.00;99.90
15625;DHT22;7912;51.376;6.126;2023-12-07T13:07:08;8.10;99.90
15625;DHT22;7912;51.376;6.126;2023-12-07T13:09:36;8.10;99.90
15625;DHT22;7912;51.376;6.126;2023-12-07T13:12:03;8.20;99.90
15625;DHT22;7912;51.376;6.126;2023-12-07T13:14:35;8.30;99.90
15625;DHT22;7912;51.376;6.126;2023-12-07T13:17:06;8.50;99.90
15625;DHT22;7912;51.376;6.126;2023-12-07T13:19:36;8.60;99.90
15625;DHT22;7912;51.376;6.126;2023-12-07T13:22:04;8.80;99.90
15625;DHT22;7912;51.376;6.126;2023-12-07T13:24:31;8.90;99.90
15625;DHT22;7912;51.376;6.126;2023-12-07T13:26:59;9.10;99.90
15625;DHT22;7912;51.376;6.126;2023-12-07T13:29:27;9.30;99.90
15625;DHT22;7912;51.376;6.126;2023-12-07T13:32:05;9.50;99.90
15625;DHT22;7912;51.376;6.126;2023-12-07T13:34:33;9.60;99.90
15625;DHT22;7912;51.376;6.126;2023-12-07T13:37:01;9.70;99.90
15625;DHT22;7912;51.376;6.126;2023-12-07T13:39:28;9.80;99.90
15625;DHT22;7912;51.376;6.126;2023-12-07T13:41:58;9.90;99.90
15625;DHT22;7912;51.376;6.126;2023-12-07T13:44:31;9.90;99.90
15625;DHT22;7912;51.376;6.126;2023-12-07T13:47:00;9.90;99.90
15625;DHT22;7912;51.376;6.126;2023-12-07T13:49:27;9.90;99.90
15625;DHT22;7912;51.376;6.126;2023-12-07T13:52:03;9.90;99.90
15625;DHT22;7912;51.376;6.126;2023-12-07T13:54:38;9.90;99.90
15625;DHT22;7912;51.376;6.126;2023-12-07T13:57:20;9.90;99.90
15625;DHT22;7912;51.376;6.126;2023-12-07T13:59:48;9.90;99.90
15625;DHT22;7912;51.376;6.126;2023-12-07T14:02:18;9.80;99.90
15625;DHT22;7912;51.376;6.126;2023-12-07T14:04:46;9.70;99.90
15625;DHT22;7912;51.376;6.126;2023-12-07T14:07:21;9.60;99.90
15625;DHT22;7912;51.376;6.126;2023-12-07T14:09:52;9.40;99.90
15625;DHT22;7912;51.376;6.126;2023-12-07T14:12:25;9.30;99.90
15625;DHT22;7912;51.376;6.126;2023-12-07T14:14:58;9.10;99.90
15625;DHT22;7912;51.376;6.126;2023-12-07T14:17:26;8.90;99.90
15625;DHT22;7912;51.376;6.126;2023-12-07T14:20:07;8.80;99.90
15625;DHT22;7912;51.376;6.126;2023-12-07T14:22:56;8.60;99.90
15625;DHT22;7912;51.376;6.126;2023-12-07T14:25:24;8.40;99.90
15625;DHT22;7912;51.376;6.126;2023-12-07T14:27:51;8.30;99.90
15625;DHT22;7912;51.376;6.126;2023-12-07T14:30:19;8.10;99.90
15625;DHT22;7912;51.376;6.126;2023-12-07T14:32:46;8.00;99.90
15625;DHT22;7912;51.376;6.126;2023-12-07T14:35:20;7.90;99.90
15625;DHT22;7912;51.376;6.126;2023-12-07T14:37:48;7.80;99.90
15625;DHT22;7912;51.376;6.126;2023-12-07T14:40:17;7.70;99.90
15625;DHT22;7912;51.376;6.126;2023-12-07T14:42:49;7.60;99.90
15625;DHT22;7912;51.376;6.126;2023-12-07T14:45:16;7.50;99.90
15625;DHT22;7912;51.376;6.126;2023-12-07T14:47:47;7.40;99.90
15625;DHT22;7912;51.376;6.126;2023-12-07T14:50:16;7.30;99.90
15625;DHT22;7912;51.376;6.126;2023-12-07T14:52:46;7.20;99.90
15625;DHT22;7912;51.376;6.126;2023-12-07T14:55:18;7.20;99.90
15625;DHT22;7912;51.376;6.126;2023-12-07T14:57:49;7.10;99.90
15625;DHT22;7912;51.376;6.126;2023-12-07T15:00:23;7.00;99.90
15625;DHT22;7912;51.376;6.126;2023-12-07T15:02:53;6.90;99.90
15625;DHT22;7912;51.376;6.126;2023-12-07T15:05:21;6.90;99.90
15625;DHT22;7912;51.376;6.126;2023-12-07T15:07:52;6.80;99.90
15625;DHT22;7912;51.376;6.126;2023-12-07T15:10:19;6.70;99.90
15625;DHT22;7912;51.376;6.126;2023-12-07T15:12:47;6.70;99.90
15625;DHT22;7912;51.376;6.126;2023-12-07T15:15:14;6.60;99.90
15625;DHT22;7912;51.376;6.126;2023-12-07T15:17:43;6.60;99.90
15625;DHT22;7912;51.376;6.126;2023-12-07T15:20:12;6.50;99.90
15625;DHT22;7912;51.376;6.126;2023-12-07T15:22:40;6.50;99.90
15625;DHT22;7912;51.376;6.126;2023-12-07T15:25:09;6.40;99.90
15625;DHT22;7912;51.376;6.126;2023-12-07T15:27:36;6.40;99.90
15625;DHT22;7912;51.376;6.126;2023-12-07T15:30:05;6.30;99.90
15625;DHT22;7912;51.376;6.126;2023-12-07T15:32:34;6.30;99.90
15625;DHT22;7912;51.376;6.126;2023-12-07T15:35:02;6.20;99.90
15625;DHT22;7912;51.376;6.126;2023-12-07T15:37:30;6.20;99.90
15625;DHT22;7912;51.376;6.126;2023-12-07T15:39:57;6.10;99.90
15625;DHT22;7912;51.376;6.126;2023-12-07T15:42:25;6.10;99.90
15625;DHT22;7912;51.376;6.126;2023-12-07T15:44:55;6.00;99.90
15625;DHT22;7912;51.376;6.126;2023-12-07T15:47:23;6.00;99.90
15625;DHT22;7912;51.376;6.126;2023-12-07T15:49:51;6.00;99.90
15625;DHT22;7912;51.376;6.126;2023-12-07T15:52:18;5.90;99.90
15625;DHT22;7912;51.376;6.126;2023-12-07T15:54:48;5.90;99.90
15625;DHT22;7912;51.376;6.126;2023-12-07T15:57:16;5.80;99.90
15625;DHT22;7912;51.376;6.126;2023-12-07T15:59:44;5.80;99.90
15625;DHT22;7912;51.376;6.126;2023-12-07T16:02:14;5.70;99.90
15625;DHT22;7912;51.376;6.126;2023-12-07T16:04:43;5.70;99.90
15625;DHT22;7912;51.376;6.126;2023-12-07T16:07:10;5.70;99.90
15625;DHT22;7912;51.376;6.126;2023-12-07T16:09:38;5.70;99.90
15625;DHT22;7912;51.376;6.126;2023-12-07T16:12:10;5.60;99.90
15625;DHT22;7912;51.376;6.126;2023-12-07T16:14:38;5.60;99.90
15625;DHT22;7912;51.376;6.126;2023-12-07T16:17:07;5.60;99.90
15625;DHT22;7912;51.376;6.126;2023-12-07T16:19:37;5.60;99.90
15625;DHT22;7912;51.376;6.126;2023-12-07T16:22:05;5.60;99.90
15625;DHT22;7912;51.376;6.126;2023-12-07T16:24:36;5.60;99.90
15625;DHT22;7912;51.376;6.126;2023-12-07T16:27:03;5.60;99.90
15625;DHT22;7912;51.376;6.126;2023-12-07T16:29:35;5.60;99.90
15625;DHT22;7912;51.376;6.126;2023-12-07T16:32:05;5.50;99.90
15625;DHT22;7912;51.376;6.126;2023-12-07T16:34:32;5.50;99.90
15625;DHT22;7912;51.376;6.126;2023-12-07T16:37:00;5.50;99.90
15625;DHT22;7912;51.376;6.126;2023-12-07T16:39:29;5.50;99.90
15625;DHT22;7912;51.376;6.126;2023-12-07T16:41:56;5.50;99.90
15625;DHT22;7912;51.376;6.126;2023-12-07T16:52:48;5.50;99.90
15625;DHT22;7912;51.376;6.126;2023-12-07T16:55:23;5.50;99.90
15625;DHT22;7912;51.376;6.126;2023-12-07T16:57:52;5.50;99.90
15625;DHT22;7912;51.376;6.126;2023-12-07T17:00:24;5.50;99.90
15625;DHT22;7912;51.376;6.126;2023-12-07T17:02:54;5.50;99.90
15625;DHT22;7912;51.376;6.126;2023-12-07T17:05:21;5.50;99.90
15625;DHT22;7912;51.376;6.126;2023-12-07T17:07:48;5.50;99.90
15625;DHT22;7912;51.376;6.126;2023-12-07T17:10:18;5.50;99.90
15625;DHT22;7912;51.376;6.126;2023-12-07T17:12:48;5.50;99.90